Terminal Aerodrome Forecast
Issued by NWS

Home | Current Version | Previous Version | Text Only | Print | Product List | Glossary On
Versions: 1 2 3 4 5 6 7 8 9 10 11 12 13 14 15
000
FTUS42 KMLB 252340
TAFISM
TAF
KISM 252340Z 2600/2624 05009KT P6SM FEW035 SCT250
     FM260300 03005KT P6SM FEW030 SCT250
     FM261400 07010KT P6SM SCT030 BKN250=

USA.gov is the U.S. government's official web portal to all federal, state and local government web resources and services.